map of RJOZ home
RJOZ - Airport
Location
City:  Ozuki, Yamaguchi, Japan
ICAO:RJOZ

Details
Type:Airport (Aerodrome, Airfield)
Use:Military
Latitude:34°02'43"N (34.045322)
Longitude:131°03'08"E (131.052144)
Datum:WGS 1984
Elevation:13 ft (4 m)
Variation:7.73°W (WMM2015v2 magnetic declination)
-0.08° annual change
Runways:2
Longest:3940 × 200 ft (1201 × 61 m), paved

Time
Time Zone:UTC+9
Local Time:

Weather
METAR:RJOZ 040125Z 33015G25KT 290V360 9999 FEW030 SCT045 12/01 Q1021 RMK 1CU030 3SC045 A3018

Related Locations
Nearby:
Farthest:SJRG: 12209 mi / 19648 km
Río Grande [Regional de Río Grande], RS, BR

Find:

   beyond  
but within

Other Information
Maps:
NOTAMs:
Links:
Sources:

  
  • flag of Japan
  • flag of Yamaguchi
  

Sectional Chart

Flight Planning
at skyvector.com

Satellite Image

Google Maps Satellite view

 

Copyright © 2004-2019 Karl L. Swartz. All rights reserved.
The Great Circle Mapper name and logo are trademarks of the Great Circle Mapper.
All other trademarks mentioned herein belong to their respective owners.
Please see credits for attibutions and further copyright information.

  Follow gcmap on Facebook Follow gcmap on Twitter GCmap on LinkedIn

hCard Microformat

Geo Microformat